createdAt,value
2022-08-12T00:01:13.114Z,54.02
2022-08-12T00:04:26.210Z,53.95
2022-08-12T00:07:13.738Z,54.66
2022-08-12T00:10:00.246Z,55.07
2022-08-12T00:12:46.168Z,54.61
2022-08-12T00:15:34.558Z,54.76
2022-08-12T00:18:21.451Z,54.47
2022-08-12T00:21:08.633Z,54.51
2022-08-12T00:23:54.926Z,54.25
2022-08-12T00:26:42.139Z,54.39
2022-08-12T00:29:28.985Z,55.02
2022-08-12T00:32:35.388Z,55.49
2022-08-12T00:35:20.616Z,54.78
2022-08-12T00:38:11.573Z,54.90
2022-08-12T00:41:00.356Z,55.17
2022-08-12T00:43:30.191Z,55.44
2022-08-12T00:46:16.136Z,55.28
2022-08-12T00:48:44.452Z,55.38
2022-08-12T00:51:12.689Z,55.84
2022-08-12T00:53:42.493Z,55.49
2022-08-12T00:56:10.965Z,55.78
2022-08-12T00:58:46.970Z,56.24
2022-08-12T01:01:17.502Z,55.85
2022-08-12T01:04:08.833Z,56.58
2022-08-12T01:07:10.245Z,56.68
2022-08-12T01:09:57.971Z,57.11
2022-08-12T01:12:28.051Z,56.48
2022-08-12T01:14:57.523Z,57.20
2022-08-12T01:17:27.100Z,56.77
2022-08-12T01:19:57.189Z,57.18
2022-08-12T01:22:31.886Z,57.58
2022-08-12T01:25:07.915Z,57.29
2022-08-12T01:27:41.793Z,58.03
2022-08-12T01:30:13.590Z,58.15
2022-08-12T01:32:43.404Z,58.03
2022-08-12T01:35:15.816Z,58.03
2022-08-12T01:37:50.110Z,57.85
2022-08-12T01:40:34.534Z,58.41
2022-08-12T01:43:09.087Z,58.43
2022-08-12T01:45:48.574Z,58.48
2022-08-12T01:48:26.557Z,58.91
2022-08-12T01:51:06.597Z,58.17
2022-08-12T01:53:52.536Z,59.12
2022-08-12T01:56:27.170Z,58.33
2022-08-12T01:59:16.885Z,58.79
2022-08-12T02:01:47.909Z,58.22
2022-08-12T02:04:50.521Z,59.05
2022-08-12T02:07:55.244Z,58.41
2022-08-12T02:10:53.698Z,58.04
2022-08-12T02:13:55.319Z,58.40
2022-08-12T02:16:37.961Z,58.59
2022-08-12T02:19:28.569Z,59.03
2022-08-12T02:22:15.354Z,59.45
2022-08-12T02:24:47.494Z,59.15
2022-08-12T02:27:18.817Z,59.69
2022-08-12T02:29:49.290Z,59.28
2022-08-12T02:32:17.671Z,59.34
2022-08-12T02:34:46.585Z,59.33
2022-08-12T02:37:16.882Z,60.08
2022-08-12T02:39:50.354Z,59.10
2022-08-12T02:42:22.218Z,59.88
2022-08-12T02:44:56.845Z,59.26
2022-08-12T02:47:58.869Z,60.07
2022-08-12T02:50:20.454Z,60.49
2022-08-12T02:52:51.872Z,60.43
2022-08-12T02:55:28.647Z,60.72
2022-08-12T02:58:12.490Z,60.95
2022-08-12T03:00:45.761Z,61.34
2022-08-12T03:03:16.319Z,61.61
2022-08-12T03:05:52.819Z,61.18
2022-08-12T03:08:32.567Z,62.04
2022-08-12T03:11:09.545Z,61.38
2022-08-12T03:13:47.269Z,62.64
2022-08-12T03:16:17.723Z,62.00
2022-08-12T03:18:46.837Z,62.29
2022-08-12T03:21:52.843Z,62.82
2022-08-12T03:24:09.277Z,62.76
2022-08-12T03:26:38.920Z,63.89
2022-08-12T03:29:08.477Z,63.35
2022-08-12T03:31:38.172Z,64.13
2022-08-12T03:34:09.531Z,64.42
2022-08-12T03:36:40.119Z,65.10
2022-08-12T03:39:35.620Z,65.07
2022-08-12T03:42:22.580Z,65.34
2022-08-12T03:45:18.190Z,65.54
2022-08-12T03:48:13.431Z,66.06
2022-08-12T03:51:06.279Z,66.03
2022-08-12T03:53:52.324Z,64.99
2022-08-12T03:56:38.656Z,65.15
2022-08-12T03:59:25.991Z,65.98
2022-08-12T04:01:57.467Z,66.33
2022-08-12T04:04:36.946Z,66.27
2022-08-12T04:07:08.819Z,66.30
2022-08-12T04:09:40.211Z,66.44
2022-08-12T04:12:29.925Z,66.43
2022-08-12T04:15:02.839Z,66.38
2022-08-12T04:17:32.690Z,66.57
2022-08-12T04:20:02.871Z,66.56
2022-08-12T04:22:31.301Z,66.82
2022-08-12T04:25:02.060Z,67.08
2022-08-12T04:27:32.442Z,67.63
2022-08-12T04:30:16.933Z,68.13
2022-08-12T04:32:52.200Z,68.29
2022-08-12T04:35:24.080Z,68.19
2022-08-12T04:37:57.924Z,67.88
2022-08-12T04:40:32.449Z,67.81
2022-08-12T04:43:02.177Z,68.24
2022-08-12T04:45:31.304Z,68.11
2022-08-12T04:48:01.903Z,68.41
2022-08-12T04:50:36.887Z,68.30
2022-08-12T04:53:09.273Z,68.17
2022-08-12T04:55:39.433Z,68.54
2022-08-12T04:58:07.949Z,68.89
2022-08-12T05:00:37.856Z,68.96
2022-08-12T05:03:06.408Z,69.07
2022-08-12T05:05:37.137Z,68.58
2022-08-12T05:08:06.918Z,68.76
2022-08-12T05:10:35.833Z,68.82
2022-08-12T05:13:09.291Z,68.97
2022-08-12T05:16:00.208Z,69.47
2022-08-12T05:18:29.634Z,70.53
2022-08-12T05:21:00.436Z,69.51
2022-08-12T05:23:54.963Z,68.83
2022-08-12T05:26:23.803Z,69.46
2022-08-12T05:28:54.133Z,70.03
2022-08-12T05:31:40.412Z,69.80
2022-08-12T05:34:14.760Z,68.03
2022-08-12T05:36:45.017Z,67.71
2022-08-12T05:39:13.365Z,67.27
2022-08-12T05:41:41.681Z,66.04
2022-08-12T05:44:13.511Z,66.12
2022-08-12T05:46:42.195Z,66.38
2022-08-12T05:49:10.673Z,65.23
2022-08-12T05:51:41.700Z,65.38
2022-08-12T05:54:13.041Z,64.50
2022-08-12T05:56:41.967Z,63.69
2022-08-12T05:59:12.326Z,63.63
2022-08-12T06:02:09.254Z,62.65
2022-08-12T06:04:33.266Z,63.14
2022-08-12T06:07:02.730Z,62.67
2022-08-12T06:09:52.321Z,62.43
2022-08-12T06:12:23.330Z,62.63
2022-08-12T06:14:51.532Z,62.07
2022-08-12T06:17:19.750Z,61.75
2022-08-12T06:20:27.398Z,60.96
2022-08-12T06:22:37.414Z,60.68
2022-08-12T06:25:08.183Z,60.51
2022-08-12T06:28:06.768Z,59.84
2022-08-12T06:30:38.953Z,59.45
2022-08-12T06:33:23.052Z,59.43
2022-08-12T06:35:57.565Z,58.57
2022-08-12T06:38:30.278Z,57.85
2022-08-12T06:41:19.604Z,57.20
2022-08-12T06:44:06.658Z,56.95
2022-08-12T06:46:38.920Z,56.33
2022-08-12T06:49:08.603Z,56.00
2022-08-12T06:51:36.847Z,55.79
2022-08-12T06:54:05.477Z,55.87
2022-08-12T06:59:24.873Z,55.01
2022-08-12T07:01:54.987Z,54.90
2022-08-12T07:04:36.165Z,54.29
2022-08-12T07:07:06.908Z,53.57
2022-08-12T07:10:01.582Z,53.14
2022-08-12T07:12:28.087Z,53.33
2022-08-12T07:14:57.748Z,52.91
2022-08-12T07:17:26.344Z,52.16
2022-08-12T07:19:57.056Z,52.49
2022-08-12T07:22:28.817Z,51.98
2022-08-12T07:25:10.975Z,51.71
2022-08-12T07:27:42.729Z,52.42
2022-08-12T07:30:12.514Z,51.74
2022-08-12T07:32:41.386Z,51.03
2022-08-12T07:35:10.460Z,50.80
2022-08-12T07:37:42.335Z,51.24
2022-08-12T07:40:12.151Z,49.59
2022-08-12T07:42:44.103Z,50.14
2022-08-12T07:45:14.011Z,49.47
2022-08-12T07:47:43.821Z,49.06
2022-08-12T07:50:14.203Z,49.13
2022-08-12T07:52:46.992Z,48.89
2022-08-12T07:55:18.787Z,50.17
2022-08-12T07:57:55.966Z,48.09
2022-08-12T08:00:24.916Z,47.52
2022-08-12T08:02:56.853Z,47.23
2022-08-12T08:05:27.266Z,47.61
2022-08-12T08:08:01.752Z,47.11
2022-08-12T08:10:30.767Z,46.60
2022-08-12T08:13:05.059Z,47.46
2022-08-12T08:16:01.132Z,46.80
2022-08-12T08:18:26.550Z,46.60
2022-08-12T08:20:57.562Z,46.84
2022-08-12T08:23:56.439Z,46.81
2022-08-12T08:26:27.061Z,45.33
2022-08-12T08:28:56.976Z,44.60
2022-08-12T08:31:25.291Z,45.05
2022-08-12T08:34:09.501Z,44.86
2022-08-12T08:36:45.392Z,44.35
2022-08-12T08:39:17.005Z,44.19
2022-08-12T08:42:13.981Z,44.80
2022-08-12T08:44:49.801Z,44.46
2022-08-12T08:47:27.146Z,44.74
2022-08-12T08:50:00.947Z,44.50
2022-08-12T08:52:40.382Z,45.72
2022-08-12T08:55:10.810Z,44.32
2022-08-12T08:57:43.917Z,42.85
2022-08-12T09:00:19.420Z,43.13
2022-08-12T09:02:58.583Z,43.16
2022-08-12T09:05:43.170Z,43.07
2022-08-12T09:08:26.631Z,41.68
2022-08-12T09:14:10.736Z,41.71
2022-08-12T09:16:42.610Z,41.42
2022-08-12T09:19:27.696Z,42.65
2022-08-12T09:21:57.298Z,42.10
2022-08-12T09:24:28.645Z,40.92
2022-08-12T09:26:59.408Z,41.01
2022-08-12T09:30:11.054Z,42.53
2022-08-12T09:32:31.428Z,41.22
2022-08-12T09:35:21.866Z,41.99
2022-08-12T09:37:58.691Z,41.10
2022-08-12T09:41:01.590Z,41.06
2022-08-12T09:43:35.103Z,40.87
2022-08-12T09:46:06.848Z,41.80
2022-08-12T09:48:56.384Z,41.69
2022-08-12T09:51:37.976Z,42.09
2022-08-12T09:54:32.661Z,42.69
2022-08-12T09:58:08.024Z,41.31
2022-08-12T10:00:14.808Z,41.64
2022-08-12T10:03:01.853Z,40.85
2022-08-12T10:06:26.509Z,40.86
2022-08-12T10:08:52.117Z,40.46
2022-08-12T10:12:12.077Z,40.73
2022-08-12T10:14:34.365Z,40.28
2022-08-12T10:17:08.562Z,40.93
2022-08-12T10:19:40.169Z,40.87
2022-08-12T10:22:40.522Z,40.66
2022-08-12T10:26:35.588Z,41.39
2022-08-12T10:28:34.024Z,41.03
2022-08-12T10:31:05.246Z,40.39
2022-08-12T10:33:54.897Z,39.72
2022-08-12T10:36:36.274Z,38.89
2022-08-12T10:40:01.271Z,38.99
2022-08-12T10:42:29.040Z,40.27
2022-08-12T10:45:17.030Z,39.47
2022-08-12T10:48:14.949Z,39.80
2022-08-12T10:50:58.664Z,40.30
2022-08-12T10:53:45.421Z,39.55
2022-08-12T10:56:18.281Z,39.42
2022-08-12T10:58:47.642Z,38.19
2022-08-12T11:01:49.261Z,37.71
2022-08-12T11:04:23.264Z,37.96
2022-08-12T11:07:09.011Z,37.15
2022-08-12T11:10:01.051Z,37.13
2022-08-12T11:12:55.208Z,36.74
2022-08-12T11:15:24.180Z,37.54
2022-08-12T11:18:03.297Z,37.99
2022-08-12T11:20:31.714Z,37.49
2022-08-12T11:23:04.307Z,37.51
2022-08-12T11:25:58.105Z,37.38
2022-08-12T11:28:33.594Z,38.22
2022-08-12T11:31:04.711Z,38.19
2022-08-12T11:34:06.236Z,37.75
2022-08-12T11:36:22.356Z,38.68
2022-08-12T11:38:51.445Z,38.31
2022-08-12T11:41:31.410Z,38.32
2022-08-12T11:44:36.169Z,38.99
2022-08-12T11:46:53.297Z,38.17
2022-08-12T11:49:31.668Z,39.03
2022-08-12T11:52:02.449Z,38.28
2022-08-12T11:54:31.581Z,37.58
2022-08-12T11:57:02.106Z,37.61
2022-08-12T12:02:21.928Z,37.93
2022-08-12T12:04:52.704Z,37.60
2022-08-12T12:07:34.050Z,38.08
2022-08-12T12:10:13.783Z,38.22
2022-08-12T12:12:50.021Z,36.98
2022-08-12T12:15:24.830Z,37.22
2022-08-12T12:18:05.752Z,37.94
2022-08-12T12:20:36.262Z,36.79
2022-08-12T12:23:04.774Z,36.08
2022-08-12T12:26:06.481Z,35.84
2022-08-12T12:28:37.189Z,35.97
2022-08-12T12:31:15.211Z,35.18
2022-08-12T12:33:58.747Z,35.24
2022-08-12T12:36:30.241Z,35.21
2022-08-12T12:39:00.522Z,36.43
2022-08-12T12:42:55.419Z,36.09
2022-08-12T12:45:28.439Z,36.69
2022-08-12T12:48:05.423Z,37.17
2022-08-12T12:50:45.570Z,37.05
2022-08-12T12:54:08.929Z,36.88
2022-08-12T12:56:17.063Z,37.02
2022-08-12T12:58:46.520Z,37.15
2022-08-12T13:01:27.833Z,37.40
2022-08-12T13:04:14.442Z,36.09
2022-08-12T13:06:45.593Z,36.00
2022-08-12T13:09:36.269Z,36.48
2022-08-12T13:12:08.994Z,36.36
2022-08-12T13:14:39.962Z,35.81
2022-08-12T13:17:14.658Z,36.10
2022-08-12T13:19:49.920Z,36.19
2022-08-12T13:22:23.865Z,35.94
2022-08-12T13:24:56.914Z,35.96
2022-08-12T13:27:34.372Z,35.74
2022-08-12T13:30:11.130Z,35.60
2022-08-12T13:32:42.408Z,35.78
2022-08-12T13:35:19.212Z,35.88
2022-08-12T13:37:55.085Z,36.44
2022-08-12T13:40:25.301Z,36.62
2022-08-12T13:42:57.973Z,35.19
2022-08-12T13:45:26.968Z,34.89
2022-08-12T13:48:00.470Z,34.92
2022-08-12T13:50:33.377Z,34.97
2022-08-12T13:53:23.212Z,34.90
2022-08-12T13:55:59.783Z,34.95
2022-08-12T13:58:32.948Z,34.76
2022-08-12T14:01:05.940Z,34.09
2022-08-12T14:03:51.329Z,34.30
2022-08-12T14:06:26.007Z,35.40
2022-08-12T14:08:59.604Z,34.85
2022-08-12T14:11:28.199Z,33.94
2022-08-12T14:14:04.587Z,34.89
2022-08-12T14:16:48.336Z,35.32
2022-08-12T14:19:22.645Z,34.53
2022-08-12T14:21:59.124Z,34.39
2022-08-12T14:24:35.061Z,34.33
2022-08-12T14:27:09.240Z,34.31
2022-08-12T14:30:04.131Z,34.82
2022-08-12T14:32:34.637Z,34.42
2022-08-12T14:35:06.515Z,33.54
2022-08-12T14:37:56.782Z,34.02
2022-08-12T14:40:28.545Z,34.70
2022-08-12T14:42:58.887Z,35.14
2022-08-12T14:45:45.560Z,34.17
2022-08-12T14:48:19.486Z,35.36
2022-08-12T14:52:07.917Z,35.86
2022-08-12T14:55:24.793Z,35.22
2022-08-12T14:57:01.457Z,35.06
2022-08-12T14:59:57.341Z,35.47
2022-08-12T15:02:28.472Z,34.53
2022-08-12T15:04:59.772Z,34.69
2022-08-12T15:07:33.474Z,34.06
2022-08-12T15:10:25.395Z,34.31
2022-08-12T15:13:07.318Z,34.89
2022-08-12T15:15:44.223Z,34.15
2022-08-12T15:18:21.736Z,34.45
2022-08-12T15:20:52.557Z,35.09
2022-08-12T15:23:24.221Z,34.46
2022-08-12T15:26:03.252Z,34.27
2022-08-12T15:28:35.021Z,34.55
2022-08-12T15:31:09.562Z,34.55
2022-08-12T15:33:57.389Z,34.81
2022-08-12T15:36:54.635Z,34.54
2022-08-12T15:39:16.455Z,35.13
2022-08-12T15:41:49.645Z,35.08
2022-08-12T15:44:42.060Z,35.01
2022-08-12T15:47:10.208Z,34.65
2022-08-12T15:49:54.306Z,34.31
2022-08-12T15:52:29.911Z,34.71
2022-08-12T15:55:05.118Z,34.64
2022-08-12T15:57:36.310Z,35.12
2022-08-12T16:00:09.480Z,35.77
2022-08-12T16:02:58.299Z,35.93
2022-08-12T16:06:11.027Z,35.65
2022-08-12T16:08:27.676Z,35.43
2022-08-12T16:10:56.885Z,36.09
2022-08-12T16:13:34.805Z,34.63
2022-08-12T16:16:22.490Z,35.43
2022-08-12T16:18:56.426Z,35.34
2022-08-12T16:21:51.964Z,35.92
2022-08-12T16:24:14.368Z,35.47
2022-08-12T16:26:45.059Z,35.35
2022-08-12T16:29:16.331Z,36.29
2022-08-12T16:31:45.327Z,36.04
2022-08-12T16:34:26.177Z,35.35
2022-08-12T16:37:09.429Z,35.73
2022-08-12T16:39:59.666Z,34.96
2022-08-12T16:42:27.809Z,35.32
2022-08-12T16:45:02.249Z,36.22
2022-08-12T16:47:58.215Z,36.28
2022-08-12T16:50:31.373Z,35.88
2022-08-12T16:53:03.319Z,36.75
2022-08-12T16:55:41.770Z,35.73
2022-08-12T16:58:18.445Z,36.57
2022-08-12T17:00:58.118Z,36.67
2022-08-12T17:03:29.020Z,36.33
2022-08-12T17:05:58.948Z,36.57
2022-08-12T17:08:28.982Z,36.93
2022-08-12T17:10:58.068Z,37.55
2022-08-12T17:13:26.834Z,37.59
2022-08-12T17:16:05.501Z,37.60
2022-08-12T17:18:42.919Z,38.50
2022-08-12T17:21:17.407Z,38.08
2022-08-12T17:23:52.958Z,37.97
2022-08-12T17:26:28.379Z,38.02
2022-08-12T17:29:01.070Z,38.46
2022-08-12T17:32:01.124Z,38.38
2022-08-12T17:34:33.945Z,37.71
2022-08-12T17:37:05.482Z,37.87
2022-08-12T17:40:15.323Z,38.27
2022-08-12T17:42:34.830Z,37.79
2022-08-12T17:45:17.393Z,38.78
2022-08-12T17:48:04.843Z,37.98
2022-08-12T17:50:38.764Z,38.66
2022-08-12T17:53:10.094Z,38.52
2022-08-12T17:55:47.372Z,38.56
2022-08-12T17:58:37.014Z,38.69
2022-08-12T18:01:11.489Z,38.42
2022-08-12T18:04:05.537Z,39.14
2022-08-12T18:06:34.595Z,39.32
2022-08-12T18:09:08.532Z,39.14
2022-08-12T18:12:06.345Z,39.27
2022-08-12T18:14:37.046Z,39.02
2022-08-12T18:17:08.163Z,39.63
2022-08-12T18:20:06.047Z,40.84
2022-08-12T18:22:31.622Z,41.33
2022-08-12T18:25:04.739Z,41.27
2022-08-12T18:27:44.815Z,41.14
2022-08-12T18:30:28.933Z,41.95
2022-08-12T18:33:03.483Z,42.09
2022-08-12T18:35:53.483Z,42.47
2022-08-12T18:38:28.186Z,42.34
2022-08-12T18:41:17.540Z,42.60
2022-08-12T18:43:59.422Z,42.64
2022-08-12T18:46:53.320Z,43.43
2022-08-12T18:49:39.398Z,43.36
2022-08-12T18:52:11.901Z,43.39
2022-08-12T18:54:48.955Z,43.89
2022-08-12T18:58:06.441Z,44.15
2022-08-12T19:00:21.023Z,44.50
2022-08-12T19:02:53.116Z,44.72
2022-08-12T19:05:53.299Z,44.74
2022-08-12T19:08:14.297Z,45.14
2022-08-12T19:10:50.586Z,45.34
2022-08-12T19:13:38.982Z,46.12
2022-08-12T19:16:11.357Z,46.24
2022-08-12T19:18:44.497Z,46.41
2022-08-12T19:21:16.997Z,47.05
2022-08-12T19:24:10.436Z,47.41
2022-08-12T19:26:42.473Z,47.63
2022-08-12T19:29:11.720Z,47.17
2022-08-12T19:31:58.932Z,47.59
2022-08-12T19:37:27.104Z,48.96
2022-08-12T19:40:08.930Z,49.58
2022-08-12T19:42:57.594Z,50.42
2022-08-12T19:45:42.022Z,50.63
2022-08-12T19:48:16.587Z,51.05
2022-08-12T19:50:50.411Z,51.48
2022-08-12T19:53:23.367Z,51.26
2022-08-12T19:55:54.317Z,51.36
2022-08-12T19:58:25.148Z,51.58
2022-08-12T20:00:55.475Z,52.36
2022-08-12T20:03:38.381Z,51.86
2022-08-12T20:06:18.346Z,52.12
2022-08-12T20:08:56.569Z,52.35
2022-08-12T20:12:09.690Z,52.65
2022-08-12T20:14:19.012Z,52.82
2022-08-12T20:16:56.373Z,53.25
2022-08-12T20:20:05.565Z,53.63
2022-08-12T20:22:24.335Z,53.87
2022-08-12T20:25:01.305Z,53.90
2022-08-12T20:28:03.123Z,54.65
2022-08-12T20:30:52.503Z,55.27
2022-08-12T20:33:17.629Z,55.27
2022-08-12T20:36:14.130Z,54.86
2022-08-12T20:38:42.132Z,55.66
2022-08-12T20:41:16.492Z,55.60
2022-08-12T20:43:49.309Z,55.65
2022-08-12T20:46:20.113Z,55.83
2022-08-12T20:48:54.539Z,55.76
2022-08-12T20:51:24.027Z,55.50
2022-08-12T20:53:59.680Z,55.28
2022-08-12T20:56:33.057Z,55.12
2022-08-12T20:59:05.956Z,55.49
2022-08-12T21:01:47.904Z,55.19
2022-08-12T21:04:36.571Z,55.46
2022-08-12T21:07:09.632Z,55.48
2022-08-12T21:09:43.883Z,54.85
2022-08-12T21:12:27.855Z,55.23
2022-08-12T21:15:23.037Z,55.59
2022-08-12T21:18:11.149Z,55.36
2022-08-12T21:20:52.442Z,55.10
2022-08-12T21:23:22.535Z,55.28
2022-08-12T21:25:52.584Z,55.83
2022-08-12T21:28:30.994Z,55.54
2022-08-12T21:32:34.301Z,55.66
2022-08-12T21:34:07.164Z,55.93
2022-08-12T21:36:43.309Z,55.68
2022-08-12T21:39:21.342Z,55.77
2022-08-12T21:41:52.741Z,55.19
2022-08-12T21:44:24.213Z,55.50
2022-08-12T21:47:20.871Z,55.76
2022-08-12T21:50:03.136Z,55.37
2022-08-12T21:52:37.002Z,55.71
2022-08-12T21:55:18.119Z,55.46
2022-08-12T21:57:54.025Z,55.71
2022-08-12T22:00:35.002Z,55.66
2022-08-12T22:04:04.219Z,55.91
2022-08-12T22:06:30.428Z,55.78
2022-08-12T22:09:16.519Z,56.04
2022-08-12T22:11:56.435Z,55.65
2022-08-12T22:14:29.211Z,56.03
2022-08-12T22:17:01.281Z,56.06
2022-08-12T22:19:35.096Z,55.99
2022-08-12T22:22:06.114Z,56.01
2022-08-12T22:24:34.745Z,55.55
2022-08-12T22:27:17.948Z,56.02
2022-08-12T22:30:15.938Z,56.08
2022-08-12T22:32:49.932Z,55.96
2022-08-12T22:35:56.262Z,55.78
2022-08-12T22:38:29.353Z,56.28
2022-08-12T22:41:01.838Z,56.58
2022-08-12T22:44:00.709Z,56.60
2022-08-12T22:46:53.104Z,57.11
2022-08-12T22:49:36.367Z,57.82
2022-08-12T22:52:08.449Z,58.25
2022-08-12T22:55:00.283Z,58.66
2022-08-12T22:57:49.390Z,58.32
2022-08-12T23:00:24.539Z,57.94
2022-08-12T23:03:03.387Z,58.70
2022-08-12T23:06:05.555Z,58.31
2022-08-12T23:08:30.000Z,58.72
2022-08-12T23:11:06.220Z,59.64
2022-08-12T23:13:55.395Z,58.77
2022-08-12T23:16:31.061Z,58.74
2022-08-12T23:19:10.704Z,58.89
2022-08-12T23:22:04.224Z,59.36
2022-08-12T23:24:56.260Z,59.76
2022-08-12T23:27:50.664Z,60.23
2022-08-12T23:30:30.954Z,60.64
2022-08-12T23:33:01.375Z,60.68
2022-08-12T23:36:02.961Z,61.04
2022-08-12T23:38:33.206Z,60.88
2022-08-12T23:41:04.286Z,60.12
2022-08-12T23:43:39.545Z,60.38
2022-08-12T23:46:11.019Z,59.84
2022-08-12T23:48:40.681Z,59.95
2022-08-12T23:51:23.690Z,60.45
2022-08-12T23:53:56.238Z,60.70
2022-08-12T23:56:26.446Z,60.16
2022-08-12T23:58:58.609Z,61.35
